createdAt,value
2023-02-04T00:00:54.278Z,2.83
2023-02-04T00:03:57.304Z,2.97
2023-02-04T00:07:00.283Z,3.10
2023-02-04T00:10:05.286Z,3.35
2023-02-04T00:13:08.177Z,2.90
2023-02-04T00:16:11.282Z,3.08
2023-02-04T00:19:14.262Z,2.83
2023-02-04T00:22:17.101Z,2.90
2023-02-04T00:25:19.910Z,2.88
2023-02-04T00:28:22.761Z,3.03
2023-02-04T00:31:25.801Z,3.05
2023-02-04T00:34:28.765Z,3.28
2023-02-04T00:37:32.423Z,2.75
2023-02-04T00:40:35.479Z,3.28
2023-02-04T00:43:41.463Z,2.53
2023-02-04T00:46:44.249Z,3.00
2023-02-04T00:49:47.066Z,2.90
2023-02-04T00:52:51.932Z,2.83
2023-02-04T00:55:55.039Z,3.00
2023-02-04T00:58:57.721Z,2.53
2023-02-04T01:02:00.635Z,2.70
2023-02-04T01:05:05.341Z,3.50
2023-02-04T01:08:08.324Z,2.83
2023-02-04T01:11:11.079Z,3.00
2023-02-04T01:14:13.763Z,3.00
2023-02-04T01:17:16.504Z,2.28
2023-02-04T01:20:19.844Z,2.65
2023-02-04T01:23:24.737Z,2.60
2023-02-04T01:26:27.542Z,2.33
2023-02-04T01:29:30.996Z,2.83
2023-02-04T01:32:33.904Z,2.75
2023-02-04T01:35:36.834Z,3.08
2023-02-04T01:38:40.534Z,2.25
2023-02-04T01:41:44.263Z,3.15
2023-02-04T01:44:47.580Z,2.63
2023-02-04T01:47:50.477Z,2.60
2023-02-04T01:50:57.318Z,2.88
2023-02-04T01:54:00.560Z,2.67
2023-02-04T01:57:04.419Z,2.22
2023-02-04T02:00:13.567Z,2.23
2023-02-04T02:03:16.267Z,2.50
2023-02-04T02:06:19.824Z,2.58
2023-02-04T02:09:23.757Z,2.78
2023-02-04T02:12:26.572Z,2.83
2023-02-04T02:15:29.376Z,2.43
2023-02-04T02:18:32.359Z,2.13
2023-02-04T02:22:05.335Z,2.45
2023-02-04T02:25:10.843Z,2.40
2023-02-04T02:28:17.145Z,3.00
2023-02-04T02:31:22.553Z,2.60
2023-02-04T02:34:30.468Z,2.63
2023-02-04T02:37:33.405Z,2.33
2023-02-04T02:40:36.661Z,2.40
2023-02-04T02:43:43.280Z,2.05
2023-02-04T02:46:48.396Z,2.23
2023-02-04T02:49:54.313Z,2.08
2023-02-04T02:52:57.924Z,2.50
2023-02-04T02:56:04.747Z,2.45
2023-02-04T02:59:17.441Z,2.25
2023-02-04T03:02:23.084Z,2.20
2023-02-04T03:05:29.465Z,2.30
2023-02-04T03:08:33.850Z,2.70
2023-02-04T03:11:37.249Z,2.22
2023-02-04T03:14:40.238Z,2.38
2023-02-04T03:17:44.209Z,2.13
2023-02-04T03:20:50.625Z,2.58
2023-02-04T03:23:56.824Z,2.33
2023-02-04T03:27:00.320Z,2.13
2023-02-04T03:30:03.380Z,2.80
2023-02-04T03:33:06.774Z,2.20
2023-02-04T03:36:10.401Z,2.60
2023-02-04T03:39:13.672Z,2.15
2023-02-04T03:42:16.491Z,1.92
2023-02-04T03:45:20.222Z,2.22
2023-02-04T03:48:23.087Z,2.57
2023-02-04T03:51:26.182Z,2.13
2023-02-04T03:54:29.006Z,2.13
2023-02-04T03:57:31.768Z,2.30
2023-02-04T04:00:34.575Z,2.00
2023-02-04T04:03:37.563Z,1.90
2023-02-04T04:06:40.355Z,1.88
2023-02-04T04:09:43.154Z,2.20
2023-02-04T04:12:46.173Z,2.58
2023-02-04T04:15:51.515Z,2.03
2023-02-04T04:18:54.725Z,2.07
2023-02-04T04:21:57.513Z,2.10
2023-02-04T04:25:00.287Z,2.13
2023-02-04T04:28:03.317Z,2.15
2023-02-04T04:31:06.303Z,2.10
2023-02-04T04:34:09.073Z,1.80
2023-02-04T04:37:18.485Z,2.10
2023-02-04T04:40:21.264Z,2.25
2023-02-04T04:43:24.362Z,2.00
2023-02-04T04:46:27.203Z,2.50
2023-02-04T04:49:30.445Z,2.30
2023-02-04T04:52:33.190Z,2.30
2023-02-04T04:55:35.972Z,2.15
2023-02-04T04:58:38.777Z,1.92
2023-02-04T05:01:41.757Z,2.13
2023-02-04T05:04:44.659Z,1.80
2023-02-04T05:07:47.474Z,2.40
2023-02-04T05:10:50.358Z,2.22
2023-02-04T05:13:53.196Z,1.70
2023-02-04T05:16:56.011Z,1.95
2023-02-04T05:19:58.928Z,2.10
2023-02-04T05:23:04.029Z,1.70
2023-02-04T05:26:08.385Z,2.03
2023-02-04T05:29:11.177Z,1.95
2023-02-04T05:32:14.078Z,2.03
2023-02-04T05:35:16.866Z,2.20
2023-02-04T05:38:19.646Z,1.90
2023-02-04T05:41:22.586Z,1.83
2023-02-04T05:44:27.396Z,1.80
2023-02-04T05:47:30.357Z,2.05
2023-02-04T05:50:33.443Z,2.13
2023-02-04T05:53:45.357Z,2.20
2023-02-04T05:56:48.277Z,2.10
2023-02-04T05:59:51.227Z,1.70
2023-02-04T06:02:54.006Z,2.10
2023-02-04T06:05:57.285Z,2.13
2023-02-04T06:09:00.611Z,2.03
2023-02-04T06:12:03.535Z,2.13
2023-02-04T06:15:06.964Z,2.20
2023-02-04T06:18:10.070Z,2.03
2023-02-04T06:21:12.814Z,1.77
2023-02-04T06:24:15.776Z,2.15
2023-02-04T06:27:23.576Z,1.92
2023-02-04T06:30:28.668Z,2.00
2023-02-04T06:33:31.511Z,2.35
2023-02-04T06:36:34.244Z,1.90
2023-02-04T06:39:36.979Z,1.80
2023-02-04T06:42:39.749Z,2.10
2023-02-04T06:45:42.631Z,1.83
2023-02-04T06:48:45.700Z,2.28
2023-02-04T06:51:49.520Z,1.97
2023-02-04T06:54:52.319Z,1.95
2023-02-04T06:57:55.137Z,2.20
2023-02-04T07:00:57.918Z,2.08
2023-02-04T07:04:00.795Z,2.28
2023-02-04T07:07:03.745Z,2.03
2023-02-04T07:10:06.863Z,2.25
2023-02-04T07:13:10.257Z,2.22
2023-02-04T07:16:13.200Z,1.73
2023-02-04T07:19:16.184Z,1.90
2023-02-04T07:22:19.331Z,1.67
2023-02-04T07:25:22.194Z,2.00
2023-02-04T07:28:26.001Z,1.90
2023-02-04T07:31:29.723Z,2.03
2023-02-04T07:34:32.621Z,2.08
2023-02-04T07:37:35.564Z,1.80
2023-02-04T07:40:39.729Z,1.80
2023-02-04T07:43:42.629Z,2.25
2023-02-04T07:46:45.352Z,2.00
2023-02-04T07:49:48.357Z,2.17
2023-02-04T07:52:51.605Z,1.90
2023-02-04T07:55:54.532Z,1.88
2023-02-04T07:58:57.525Z,2.20
2023-02-04T08:02:02.059Z,2.40
2023-02-04T08:05:05.357Z,2.08
2023-02-04T08:08:08.217Z,1.90
2023-02-04T08:11:11.334Z,2.17
2023-02-04T08:14:14.212Z,2.53
2023-02-04T08:17:16.962Z,2.15
2023-02-04T08:20:20.394Z,1.85
2023-02-04T08:23:23.449Z,2.03
2023-02-04T08:26:26.356Z,1.90
2023-02-04T08:29:29.149Z,1.67
2023-02-04T08:32:31.971Z,2.00
2023-02-04T08:35:34.707Z,2.00
2023-02-04T08:38:37.593Z,1.50
2023-02-04T08:41:41.152Z,1.92
2023-02-04T08:44:44.216Z,2.15
2023-02-04T08:47:46.935Z,2.05
2023-02-04T08:50:49.887Z,1.73
2023-02-04T08:53:52.869Z,1.70
2023-02-04T08:56:55.655Z,1.83
2023-02-04T08:59:58.541Z,1.90
2023-02-04T09:03:01.347Z,1.50
2023-02-04T09:06:05.399Z,1.70
2023-02-04T09:09:11.190Z,2.07
2023-02-04T09:12:13.989Z,1.90
2023-02-04T09:15:16.883Z,1.90
2023-02-04T09:18:22.178Z,1.98
2023-02-04T09:21:25.502Z,1.88
2023-02-04T09:24:28.354Z,1.60
2023-02-04T09:27:31.790Z,1.88
2023-02-04T09:30:37.695Z,1.55
2023-02-04T09:33:40.583Z,1.70
2023-02-04T09:36:43.349Z,1.80
2023-02-04T09:39:46.040Z,2.00
2023-02-04T09:42:50.548Z,1.45
2023-02-04T09:45:54.969Z,1.80
2023-02-04T09:49:03.952Z,1.52
2023-02-04T09:52:12.450Z,1.50
2023-02-04T09:55:17.713Z,1.50
2023-02-04T09:58:23.179Z,1.90
2023-02-04T10:01:28.195Z,1.90
2023-02-04T10:04:34.004Z,1.42
2023-02-04T10:07:36.812Z,1.85
2023-02-04T10:10:39.689Z,1.70
2023-02-04T10:13:47.197Z,1.60
2023-02-04T10:16:59.393Z,1.75
2023-02-04T10:20:02.676Z,1.30
2023-02-04T10:23:09.771Z,1.92
2023-02-04T10:26:14.882Z,1.40
2023-02-04T10:29:20.857Z,1.40
2023-02-04T10:32:30.555Z,1.98
2023-02-04T10:35:45.690Z,1.55
2023-02-04T10:39:25.483Z,1.90
2023-02-04T10:42:30.172Z,1.50
2023-02-04T10:45:32.868Z,1.60
2023-02-04T10:48:42.546Z,1.67
2023-02-04T10:51:45.503Z,1.70
2023-02-04T10:54:48.741Z,1.90
2023-02-04T10:57:53.088Z,1.60
2023-02-04T11:00:56.310Z,1.70
2023-02-04T11:03:59.283Z,1.45
2023-02-04T13:21:35.000Z,1.77
2023-02-04T13:24:38.397Z,1.70
2023-02-04T13:27:41.250Z,1.60
2023-02-04T13:30:44.172Z,1.45
2023-02-04T13:33:46.992Z,1.75
2023-02-04T13:36:52.369Z,1.80
2023-02-04T13:39:55.197Z,1.70
2023-02-04T13:42:58.097Z,1.70
2023-02-04T13:46:03.027Z,1.48
2023-02-04T13:49:06.241Z,1.50
2023-02-04T13:52:09.208Z,1.50
2023-02-04T13:55:14.044Z,1.77
2023-02-04T13:58:16.797Z,1.63
2023-02-04T14:01:19.857Z,1.40
2023-02-04T14:04:22.658Z,1.63
2023-02-04T14:07:25.899Z,1.40
2023-02-04T14:10:28.777Z,1.50
2023-02-04T14:13:31.617Z,1.47
2023-02-04T14:16:36.379Z,1.10
2023-02-04T14:19:40.902Z,1.60
2023-02-04T14:22:43.866Z,1.67
2023-02-04T14:25:47.014Z,1.70
2023-02-04T14:28:50.325Z,1.10
2023-02-04T14:31:53.238Z,1.58
2023-02-04T14:34:56.483Z,1.60
2023-02-04T14:37:59.918Z,1.30
2023-02-04T14:41:02.712Z,1.83
2023-02-04T14:44:05.864Z,1.43
2023-02-04T14:47:09.035Z,1.60
2023-02-04T14:50:16.848Z,1.60
2023-02-04T14:53:19.767Z,1.55
2023-02-04T14:56:22.948Z,1.75
2023-02-04T14:59:26.536Z,1.10
2023-02-04T15:02:31.093Z,1.50
2023-02-04T15:05:34.010Z,1.42
2023-02-04T15:08:36.844Z,1.50
2023-02-04T15:11:39.953Z,1.63
2023-02-04T15:14:42.899Z,1.70
2023-02-04T15:17:45.919Z,1.67
2023-02-04T15:20:49.045Z,1.60
2023-02-04T15:23:51.850Z,1.70
2023-02-04T15:26:55.382Z,1.88
2023-02-04T15:30:00.357Z,1.60
2023-02-04T15:33:03.509Z,1.63
2023-02-04T15:36:06.747Z,1.70
2023-02-04T15:39:09.714Z,1.80
2023-02-04T15:42:12.506Z,1.58
2023-02-04T15:45:15.612Z,1.40
2023-02-04T15:48:20.087Z,1.33
2023-02-04T15:51:22.917Z,1.40
2023-02-04T15:54:25.712Z,1.70
2023-02-04T15:57:29.014Z,1.75
2023-02-04T16:00:32.221Z,1.73
2023-02-04T16:03:35.277Z,1.70
2023-02-04T16:06:41.285Z,1.60
2023-02-04T16:09:46.009Z,1.35
2023-02-04T16:12:49.583Z,1.75
2023-02-04T16:15:52.455Z,1.37
2023-02-04T16:18:55.771Z,1.80
2023-02-04T16:21:59.038Z,1.77
2023-02-04T16:25:02.091Z,1.77
2023-02-04T16:28:05.659Z,1.90
2023-02-04T16:31:12.445Z,1.67
2023-02-04T16:34:15.865Z,1.58
2023-02-04T16:37:19.305Z,1.77
2023-02-04T16:40:22.493Z,1.52
2023-02-04T16:43:26.171Z,1.80
2023-02-04T16:46:31.228Z,1.50
2023-02-04T16:49:36.112Z,1.85
2023-02-04T16:52:39.867Z,1.70
2023-02-04T16:55:44.352Z,1.52
2023-02-04T16:58:47.638Z,1.80
2023-02-04T17:01:50.915Z,1.60
2023-02-04T17:04:54.316Z,1.65
2023-02-04T17:07:58.654Z,1.60
2023-02-04T17:11:20.089Z,1.50
2023-02-04T17:14:24.868Z,1.70
2023-02-04T17:17:31.489Z,1.77
2023-02-04T17:20:36.346Z,1.77
2023-02-04T17:23:43.010Z,1.70
2023-02-04T17:26:46.198Z,1.45
2023-02-04T17:29:49.488Z,1.70
2023-02-04T17:32:52.611Z,1.83
2023-02-04T17:35:56.425Z,1.40
2023-02-04T17:39:09.021Z,1.50
2023-02-04T17:42:12.424Z,1.80
2023-02-04T17:45:15.911Z,1.30
2023-02-04T17:48:19.744Z,1.37
2023-02-04T17:51:25.420Z,1.80
2023-02-04T17:54:28.591Z,1.73
2023-02-04T17:57:36.364Z,1.70
2023-02-04T18:00:40.184Z,1.75
2023-02-04T18:03:44.217Z,1.47
2023-02-04T18:06:56.502Z,1.55
2023-02-04T18:10:20.783Z,1.60
2023-02-04T18:13:30.313Z,1.55
2023-02-04T18:16:35.809Z,1.92
2023-02-04T18:19:40.833Z,1.50
2023-02-04T18:22:47.515Z,1.60
2023-02-04T18:25:52.241Z,1.52
2023-02-04T18:28:56.057Z,1.77
2023-02-04T18:32:16.260Z,1.50
2023-02-04T18:35:42.839Z,1.70
2023-02-04T18:38:46.839Z,1.70
2023-02-04T18:41:51.606Z,1.70
2023-02-04T18:44:55.460Z,1.40
2023-02-04T18:48:19.632Z,1.60
2023-02-04T18:51:27.962Z,1.30
2023-02-04T18:54:38.928Z,1.70
2023-02-04T18:57:42.453Z,1.80
2023-02-04T19:00:52.409Z,1.30
2023-02-04T19:03:59.048Z,2.15
2023-02-04T19:07:05.937Z,1.43
2023-02-04T19:10:29.624Z,1.58
2023-02-04T19:13:42.564Z,1.58
2023-02-04T19:16:47.563Z,1.50
2023-02-04T19:20:01.437Z,1.80
2023-02-04T19:23:14.593Z,1.67
2023-02-04T19:26:23.630Z,1.33
2023-02-04T19:29:35.736Z,1.45
2023-02-04T19:32:46.308Z,1.23
2023-02-04T19:35:50.298Z,1.60
2023-02-04T19:39:35.435Z,1.40
2023-02-04T19:42:41.397Z,1.55
2023-02-04T19:45:48.273Z,1.90
2023-02-04T19:48:52.791Z,1.50
2023-02-04T19:51:58.526Z,1.65
2023-02-04T19:55:17.215Z,1.30
2023-02-04T19:58:41.665Z,1.45
2023-02-04T20:01:45.228Z,1.65
2023-02-04T20:04:54.309Z,1.63
2023-02-04T20:08:23.920Z,1.58
2023-02-04T20:11:31.122Z,1.37
2023-02-04T20:15:23.859Z,1.60
2023-02-04T20:18:32.074Z,1.40
2023-02-04T20:21:35.375Z,1.42
2023-02-04T20:24:42.521Z,1.40
2023-02-04T20:27:58.230Z,1.40
2023-02-04T20:31:02.739Z,1.65
2023-02-04T20:34:17.067Z,1.70
2023-02-04T20:37:27.632Z,1.60
2023-02-04T20:40:37.755Z,1.23
2023-02-04T20:43:42.134Z,1.10
2023-02-04T20:46:45.414Z,1.60
2023-02-04T20:49:56.914Z,1.60
2023-02-04T20:53:23.856Z,1.60
2023-02-04T20:56:37.597Z,1.80
2023-02-04T20:59:42.993Z,1.33
2023-02-04T21:02:46.561Z,1.10
2023-02-04T21:05:51.404Z,1.40
2023-02-04T21:08:59.875Z,1.70
2023-02-04T21:12:03.666Z,1.33
2023-02-04T21:15:07.882Z,1.40
2023-02-04T21:18:11.974Z,1.80
2023-02-04T21:21:15.487Z,1.77
2023-02-04T21:24:19.216Z,1.50
2023-02-04T21:27:24.341Z,1.45
2023-02-04T21:30:30.913Z,1.40
2023-02-04T21:33:34.675Z,1.50
2023-02-04T21:36:37.712Z,1.50
2023-02-04T21:39:40.832Z,1.33
2023-02-04T21:42:43.788Z,1.35
2023-02-04T21:45:46.832Z,1.90
2023-02-04T21:48:52.101Z,1.38
2023-02-04T21:51:55.076Z,1.60
2023-02-04T21:54:57.872Z,1.45
2023-02-04T21:58:00.806Z,1.70
2023-02-04T22:01:06.532Z,1.13
2023-02-04T22:04:09.359Z,1.45
2023-02-04T22:07:12.102Z,1.35
2023-02-04T22:10:18.494Z,1.25
2023-02-04T22:13:40.086Z,1.38
2023-02-04T22:16:45.092Z,1.13
2023-02-04T22:19:48.220Z,1.30
2023-02-04T22:22:52.086Z,1.48
2023-02-04T22:25:54.947Z,1.60
2023-02-04T22:28:57.677Z,1.30
2023-02-04T22:32:01.142Z,1.40
2023-02-04T22:35:04.730Z,1.33
2023-02-04T22:38:07.584Z,1.50
2023-02-04T22:41:10.561Z,1.25
2023-02-04T22:44:13.355Z,1.60
2023-02-04T22:47:16.237Z,1.50
2023-02-04T22:50:19.069Z,1.20
2023-02-04T22:53:24.640Z,1.33
2023-02-04T22:56:28.164Z,1.67
2023-02-04T22:59:31.021Z,1.60
2023-02-04T23:02:37.603Z,1.20
2023-02-04T23:05:40.386Z,1.30
2023-02-04T23:08:43.184Z,1.65
2023-02-04T23:11:46.316Z,1.40
2023-02-04T23:14:49.785Z,1.60
2023-02-04T23:17:52.969Z,1.30
2023-02-04T23:20:55.847Z,1.63
2023-02-04T23:23:59.202Z,1.40
2023-02-04T23:27:03.311Z,1.45
2023-02-04T23:30:07.120Z,1.65
2023-02-04T23:33:11.056Z,1.47
2023-02-04T23:36:13.917Z,1.33
2023-02-04T23:39:20.796Z,1.10
2023-02-04T23:42:23.794Z,1.27
2023-02-04T23:45:26.559Z,1.40
2023-02-04T23:48:29.358Z,1.23
2023-02-04T23:51:32.882Z,1.52
2023-02-04T23:54:35.890Z,1.55
2023-02-04T23:57:38.680Z,1.67
